sensor_id;sensor_type;location;lat;lon;timestamp;temperature;humidity
28677;DHT22;15858;48.338;11.078;2023-03-13T00:01:42;7.50;99.90
28677;DHT22;15858;48.338;11.078;2023-03-13T00:04:10;7.50;99.90
28677;DHT22;15858;48.338;11.078;2023-03-13T00:06:38;7.50;99.90
28677;DHT22;15858;48.338;11.078;2023-03-13T00:09:07;7.40;99.90
28677;DHT22;15858;48.338;11.078;2023-03-13T00:11:34;7.40;99.90
28677;DHT22;15858;48.338;11.078;2023-03-13T00:14:03;7.50;99.90
28677;DHT22;15858;48.338;11.078;2023-03-13T00:16:30;7.50;99.90
28677;DHT22;15858;48.338;11.078;2023-03-13T00:18:57;7.60;99.90
28677;DHT22;15858;48.338;11.078;2023-03-13T00:21:26;7.50;99.90
28677;DHT22;15858;48.338;11.078;2023-03-13T00:23:53;7.50;99.90
28677;DHT22;15858;48.338;11.078;2023-03-13T00:26:22;7.50;99.90
28677;DHT22;15858;48.338;11.078;2023-03-13T00:28:49;7.60;99.90
28677;DHT22;15858;48.338;11.078;2023-03-13T00:31:22;7.60;99.90
28677;DHT22;15858;48.338;11.078;2023-03-13T00:33:52;7.60;99.90
28677;DHT22;15858;48.338;11.078;2023-03-13T00:36:24;7.60;99.90
28677;DHT22;15858;48.338;11.078;2023-03-13T00:38:52;7.50;99.90
28677;DHT22;15858;48.338;11.078;2023-03-13T00:41:27;7.50;99.90
28677;DHT22;15858;48.338;11.078;2023-03-13T00:43:54;7.50;99.90
28677;DHT22;15858;48.338;11.078;2023-03-13T00:46:23;7.50;99.90
28677;DHT22;15858;48.338;11.078;2023-03-13T00:48:50;7.50;99.90
28677;DHT22;15858;48.338;11.078;2023-03-13T00:51:18;7.40;99.90
28677;DHT22;15858;48.338;11.078;2023-03-13T00:53:45;7.30;99.90
28677;DHT22;15858;48.338;11.078;2023-03-13T00:56:14;7.30;99.90
28677;DHT22;15858;48.338;11.078;2023-03-13T00:58:42;7.30;99.90
28677;DHT22;15858;48.338;11.078;2023-03-13T01:01:10;7.30;99.90
28677;DHT22;15858;48.338;11.078;2023-03-13T01:03:38;7.40;99.90
28677;DHT22;15858;48.338;11.078;2023-03-13T01:06:07;7.40;99.90
28677;DHT22;15858;48.338;11.078;2023-03-13T01:08:34;7.40;99.90
28677;DHT22;15858;48.338;11.078;2023-03-13T01:11:07;7.40;99.90
28677;DHT22;15858;48.338;11.078;2023-03-13T01:13:34;7.40;99.90
28677;DHT22;15858;48.338;11.078;2023-03-13T01:16:06;7.30;99.90
28677;DHT22;15858;48.338;11.078;2023-03-13T01:18:33;7.30;99.90
28677;DHT22;15858;48.338;11.078;2023-03-13T01:21:00;7.30;99.90
28677;DHT22;15858;48.338;11.078;2023-03-13T01:23:27;7.30;99.90
28677;DHT22;15858;48.338;11.078;2023-03-13T01:25:55;7.30;99.90
28677;DHT22;15858;48.338;11.078;2023-03-13T01:28:23;7.30;99.90
28677;DHT22;15858;48.338;11.078;2023-03-13T01:30:50;7.30;99.90
28677;DHT22;15858;48.338;11.078;2023-03-13T01:33:17;7.30;99.90
28677;DHT22;15858;48.338;11.078;2023-03-13T01:35:44;7.30;99.90
28677;DHT22;15858;48.338;11.078;2023-03-13T01:38:11;7.20;99.90
28677;DHT22;15858;48.338;11.078;2023-03-13T01:40:42;7.10;99.90
28677;DHT22;15858;48.338;11.078;2023-03-13T01:43:29;7.10;99.90
28677;DHT22;15858;48.338;11.078;2023-03-13T01:46:11;7.10;99.90
28677;DHT22;15858;48.338;11.078;2023-03-13T01:49:04;7.00;99.90
28677;DHT22;15858;48.338;11.078;2023-03-13T01:51:36;7.00;99.90
28677;DHT22;15858;48.338;11.078;2023-03-13T01:54:27;6.90;99.90
28677;DHT22;15858;48.338;11.078;2023-03-13T01:56:59;6.90;99.90
28677;DHT22;15858;48.338;11.078;2023-03-13T01:59:48;7.00;99.90
28677;DHT22;15858;48.338;11.078;2023-03-13T02:02:16;7.00;99.90
28677;DHT22;15858;48.338;11.078;2023-03-13T02:04:55;7.00;99.90
28677;DHT22;15858;48.338;11.078;2023-03-13T02:07:28;6.90;99.90
28677;DHT22;15858;48.338;11.078;2023-03-13T02:09:56;6.90;99.90
28677;DHT22;15858;48.338;11.078;2023-03-13T02:12:33;6.80;99.90
28677;DHT22;15858;48.338;11.078;2023-03-13T02:15:06;6.80;99.90
28677;DHT22;15858;48.338;11.078;2023-03-13T02:17:35;6.80;99.90
28677;DHT22;15858;48.338;11.078;2023-03-13T02:20:02;6.70;99.90
28677;DHT22;15858;48.338;11.078;2023-03-13T02:22:46;6.80;99.90
28677;DHT22;15858;48.338;11.078;2023-03-13T02:27:54;6.80;99.90
28677;DHT22;15858;48.338;11.078;2023-03-13T02:30:22;6.80;99.90
28677;DHT22;15858;48.338;11.078;2023-03-13T02:32:50;6.80;99.90
28677;DHT22;15858;48.338;11.078;2023-03-13T02:35:19;6.90;99.90
28677;DHT22;15858;48.338;11.078;2023-03-13T02:37:50;6.90;99.90
28677;DHT22;15858;48.338;11.078;2023-03-13T02:40:21;6.90;99.90
28677;DHT22;15858;48.338;11.078;2023-03-13T02:42:49;7.00;99.90
28677;DHT22;15858;48.338;11.078;2023-03-13T02:45:17;7.00;99.90
28677;DHT22;15858;48.338;11.078;2023-03-13T02:47:44;7.00;99.90
28677;DHT22;15858;48.338;11.078;2023-03-13T02:50:11;7.00;99.90
28677;DHT22;15858;48.338;11.078;2023-03-13T02:52:50;7.00;99.90
28677;DHT22;15858;48.338;11.078;2023-03-13T02:55:38;7.00;99.90
28677;DHT22;15858;48.338;11.078;2023-03-13T02:58:06;7.10;99.90
28677;DHT22;15858;48.338;11.078;2023-03-13T03:00:33;7.10;99.90
28677;DHT22;15858;48.338;11.078;2023-03-13T03:02:59;7.10;99.90
28677;DHT22;15858;48.338;11.078;2023-03-13T03:05:26;7.20;99.90
28677;DHT22;15858;48.338;11.078;2023-03-13T03:07:53;7.20;99.90
28677;DHT22;15858;48.338;11.078;2023-03-13T03:10:19;7.20;99.90
28677;DHT22;15858;48.338;11.078;2023-03-13T03:12:46;7.30;99.90
28677;DHT22;15858;48.338;11.078;2023-03-13T03:15:12;7.30;99.90
28677;DHT22;15858;48.338;11.078;2023-03-13T03:17:39;7.30;99.90
28677;DHT22;15858;48.338;11.078;2023-03-13T03:20:06;7.40;99.90
28677;DHT22;15858;48.338;11.078;2023-03-13T03:22:33;7.40;99.90
28677;DHT22;15858;48.338;11.078;2023-03-13T03:24:59;7.50;99.90
28677;DHT22;15858;48.338;11.078;2023-03-13T03:27:26;7.40;99.90
28677;DHT22;15858;48.338;11.078;2023-03-13T03:29:52;7.40;99.90
28677;DHT22;15858;48.338;11.078;2023-03-13T03:32:19;7.40;99.90
28677;DHT22;15858;48.338;11.078;2023-03-13T03:34:45;7.50;99.90
28677;DHT22;15858;48.338;11.078;2023-03-13T03:37:12;7.50;99.90
28677;DHT22;15858;48.338;11.078;2023-03-13T03:39:38;7.50;99.90
28677;DHT22;15858;48.338;11.078;2023-03-13T03:42:08;7.50;99.90
28677;DHT22;15858;48.338;11.078;2023-03-13T03:44:35;7.50;99.90
28677;DHT22;15858;48.338;11.078;2023-03-13T03:47:01;7.50;99.90
28677;DHT22;15858;48.338;11.078;2023-03-13T03:49:28;7.60;99.90
28677;DHT22;15858;48.338;11.078;2023-03-13T03:51:55;7.60;99.90
28677;DHT22;15858;48.338;11.078;2023-03-13T03:54:21;7.60;99.90
28677;DHT22;15858;48.338;11.078;2023-03-13T03:56:48;7.60;99.90
28677;DHT22;15858;48.338;11.078;2023-03-13T03:59:15;7.70;99.90
28677;DHT22;15858;48.338;11.078;2023-03-13T04:01:41;7.80;99.90
28677;DHT22;15858;48.338;11.078;2023-03-13T04:04:08;7.80;99.90
28677;DHT22;15858;48.338;11.078;2023-03-13T04:06:35;7.80;99.90
28677;DHT22;15858;48.338;11.078;2023-03-13T04:09:01;7.80;99.90
28677;DHT22;15858;48.338;11.078;2023-03-13T04:11:28;7.90;99.90
28677;DHT22;15858;48.338;11.078;2023-03-13T04:13:54;7.90;99.90
28677;DHT22;15858;48.338;11.078;2023-03-13T04:16:21;7.90;99.90
28677;DHT22;15858;48.338;11.078;2023-03-13T04:18:48;7.80;99.90
28677;DHT22;15858;48.338;11.078;2023-03-13T04:21:14;7.90;99.90
28677;DHT22;15858;48.338;11.078;2023-03-13T04:23:41;7.90;99.90
28677;DHT22;15858;48.338;11.078;2023-03-13T04:26:08;7.90;99.90
28677;DHT22;15858;48.338;11.078;2023-03-13T04:28:34;8.00;99.90
28677;DHT22;15858;48.338;11.078;2023-03-13T04:31:01;8.10;99.90
28677;DHT22;15858;48.338;11.078;2023-03-13T04:33:28;8.20;99.90
28677;DHT22;15858;48.338;11.078;2023-03-13T04:35:55;8.20;99.90
28677;DHT22;15858;48.338;11.078;2023-03-13T04:38:21;8.20;99.90
28677;DHT22;15858;48.338;11.078;2023-03-13T04:40:48;8.20;99.90
28677;DHT22;15858;48.338;11.078;2023-03-13T04:43:14;8.20;99.90
28677;DHT22;15858;48.338;11.078;2023-03-13T04:45:41;8.20;99.90
28677;DHT22;15858;48.338;11.078;2023-03-13T04:48:08;8.20;99.90
28677;DHT22;15858;48.338;11.078;2023-03-13T04:50:34;8.20;99.90
28677;DHT22;15858;48.338;11.078;2023-03-13T04:53:01;8.10;99.90
28677;DHT22;15858;48.338;11.078;2023-03-13T04:55:27;8.10;99.90
28677;DHT22;15858;48.338;11.078;2023-03-13T04:57:54;8.10;99.90
28677;DHT22;15858;48.338;11.078;2023-03-13T05:00:21;8.00;99.90
28677;DHT22;15858;48.338;11.078;2023-03-13T05:02:47;8.10;99.90
28677;DHT22;15858;48.338;11.078;2023-03-13T05:05:14;8.10;99.90
28677;DHT22;15858;48.338;11.078;2023-03-13T05:07:41;8.10;99.90
28677;DHT22;15858;48.338;11.078;2023-03-13T05:10:07;8.10;99.90
28677;DHT22;15858;48.338;11.078;2023-03-13T05:12:34;8.10;99.90
28677;DHT22;15858;48.338;11.078;2023-03-13T05:15:01;8.10;99.90
28677;DHT22;15858;48.338;11.078;2023-03-13T05:17:28;8.10;99.90
28677;DHT22;15858;48.338;11.078;2023-03-13T05:19:54;8.20;99.90
28677;DHT22;15858;48.338;11.078;2023-03-13T05:22:21;8.20;99.90
28677;DHT22;15858;48.338;11.078;2023-03-13T05:24:47;8.30;99.90
28677;DHT22;15858;48.338;11.078;2023-03-13T05:27:14;8.30;99.90
28677;DHT22;15858;48.338;11.078;2023-03-13T05:29:41;8.30;99.90
28677;DHT22;15858;48.338;11.078;2023-03-13T05:32:07;8.30;99.90
28677;DHT22;15858;48.338;11.078;2023-03-13T05:34:35;8.40;99.90
28677;DHT22;15858;48.338;11.078;2023-03-13T05:37:02;8.40;99.90
28677;DHT22;15858;48.338;11.078;2023-03-13T05:39:28;8.30;99.90
28677;DHT22;15858;48.338;11.078;2023-03-13T05:41:55;8.40;99.90
28677;DHT22;15858;48.338;11.078;2023-03-13T05:44:21;8.40;99.90
28677;DHT22;15858;48.338;11.078;2023-03-13T05:46:48;8.40;99.90
28677;DHT22;15858;48.338;11.078;2023-03-13T05:49:15;8.40;99.90
28677;DHT22;15858;48.338;11.078;2023-03-13T05:51:41;8.50;99.90
28677;DHT22;15858;48.338;11.078;2023-03-13T05:54:08;8.50;99.90
28677;DHT22;15858;48.338;11.078;2023-03-13T05:56:34;8.50;99.90
28677;DHT22;15858;48.338;11.078;2023-03-13T05:59:01;8.50;99.90
28677;DHT22;15858;48.338;11.078;2023-03-13T06:01:28;8.50;99.90
28677;DHT22;15858;48.338;11.078;2023-03-13T06:03:54;8.60;99.90
28677;DHT22;15858;48.338;11.078;2023-03-13T06:06:21;8.60;99.90
28677;DHT22;15858;48.338;11.078;2023-03-13T06:08:47;8.60;99.90
28677;DHT22;15858;48.338;11.078;2023-03-13T06:11:14;8.70;99.90
28677;DHT22;15858;48.338;11.078;2023-03-13T06:13:41;8.70;99.90
28677;DHT22;15858;48.338;11.078;2023-03-13T06:16:07;8.80;99.90
28677;DHT22;15858;48.338;11.078;2023-03-13T06:18:34;8.80;99.90
28677;DHT22;15858;48.338;11.078;2023-03-13T06:21:01;8.80;99.90
28677;DHT22;15858;48.338;11.078;2023-03-13T06:23:28;8.90;99.90
28677;DHT22;15858;48.338;11.078;2023-03-13T06:25:55;8.90;99.90
28677;DHT22;15858;48.338;11.078;2023-03-13T06:28:22;8.90;99.90
28677;DHT22;15858;48.338;11.078;2023-03-13T06:30:48;8.90;99.90
28677;DHT22;15858;48.338;11.078;2023-03-13T06:33:15;9.00;99.90
28677;DHT22;15858;48.338;11.078;2023-03-13T06:35:42;9.10;99.90
28677;DHT22;15858;48.338;11.078;2023-03-13T06:38:23;9.10;99.90
28677;DHT22;15858;48.338;11.078;2023-03-13T06:40:50;9.10;99.90
28677;DHT22;15858;48.338;11.078;2023-03-13T06:43:17;9.10;99.90
28677;DHT22;15858;48.338;11.078;2023-03-13T06:45:44;9.20;99.90
28677;DHT22;15858;48.338;11.078;2023-03-13T06:48:10;9.30;99.90
28677;DHT22;15858;48.338;11.078;2023-03-13T06:50:38;9.60;99.90
28677;DHT22;15858;48.338;11.078;2023-03-13T06:53:05;9.60;99.90
28677;DHT22;15858;48.338;11.078;2023-03-13T06:55:31;9.70;99.90
28677;DHT22;15858;48.338;11.078;2023-03-13T06:57:58;9.70;99.90
28677;DHT22;15858;48.338;11.078;2023-03-13T07:00:25;9.80;99.90
28677;DHT22;15858;48.338;11.078;2023-03-13T07:02:51;10.00;99.90
28677;DHT22;15858;48.338;11.078;2023-03-13T07:05:18;10.10;99.90
28677;DHT22;15858;48.338;11.078;2023-03-13T07:07:44;10.20;99.90
28677;DHT22;15858;48.338;11.078;2023-03-13T07:10:11;10.20;99.90
28677;DHT22;15858;48.338;11.078;2023-03-13T07:12:38;10.20;99.90
28677;DHT22;15858;48.338;11.078;2023-03-13T07:15:05;10.30;99.90
28677;DHT22;15858;48.338;11.078;2023-03-13T07:17:32;10.30;99.90
28677;DHT22;15858;48.338;11.078;2023-03-13T07:19:58;10.30;99.90
28677;DHT22;15858;48.338;11.078;2023-03-13T07:22:25;10.30;99.90
28677;DHT22;15858;48.338;11.078;2023-03-13T07:24:52;10.30;99.90
28677;DHT22;15858;48.338;11.078;2023-03-13T07:27:19;10.30;99.90
28677;DHT22;15858;48.338;11.078;2023-03-13T07:29:45;10.40;99.90
28677;DHT22;15858;48.338;11.078;2023-03-13T07:32:12;10.40;99.90
28677;DHT22;15858;48.338;11.078;2023-03-13T07:34:39;10.50;99.90
28677;DHT22;15858;48.338;11.078;2023-03-13T07:37:05;10.60;99.90
28677;DHT22;15858;48.338;11.078;2023-03-13T07:39:32;10.70;99.90
28677;DHT22;15858;48.338;11.078;2023-03-13T07:41:58;10.70;99.90
28677;DHT22;15858;48.338;11.078;2023-03-13T07:44:25;10.80;99.90
28677;DHT22;15858;48.338;11.078;2023-03-13T07:46:51;10.90;99.90
28677;DHT22;15858;48.338;11.078;2023-03-13T07:49:18;10.90;99.90
28677;DHT22;15858;48.338;11.078;2023-03-13T07:51:44;11.00;99.90
28677;DHT22;15858;48.338;11.078;2023-03-13T07:54:11;11.10;99.90
28677;DHT22;15858;48.338;11.078;2023-03-13T07:56:38;11.10;99.90
28677;DHT22;15858;48.338;11.078;2023-03-13T07:59:05;11.10;99.90
28677;DHT22;15858;48.338;11.078;2023-03-13T08:01:32;11.00;99.90
28677;DHT22;15858;48.338;11.078;2023-03-13T08:03:59;10.90;99.90
28677;DHT22;15858;48.338;11.078;2023-03-13T08:06:28;10.80;99.90
28677;DHT22;15858;48.338;11.078;2023-03-13T08:08:57;10.80;99.90
28677;DHT22;15858;48.338;11.078;2023-03-13T08:11:25;10.70;99.90
28677;DHT22;15858;48.338;11.078;2023-03-13T08:13:53;10.70;99.90
28677;DHT22;15858;48.338;11.078;2023-03-13T08:16:25;10.70;99.90
28677;DHT22;15858;48.338;11.078;2023-03-13T08:18:54;10.80;99.90
28677;DHT22;15858;48.338;11.078;2023-03-13T08:21:24;10.80;99.90
28677;DHT22;15858;48.338;11.078;2023-03-13T08:23:55;10.90;99.90
28677;DHT22;15858;48.338;11.078;2023-03-13T08:26:24;10.90;99.90
28677;DHT22;15858;48.338;11.078;2023-03-13T08:28:54;10.90;99.90
28677;DHT22;15858;48.338;11.078;2023-03-13T08:31:24;11.00;99.90
28677;DHT22;15858;48.338;11.078;2023-03-13T08:33:51;11.20;99.90
28677;DHT22;15858;48.338;11.078;2023-03-13T08:36:44;11.30;99.90
28677;DHT22;15858;48.338;11.078;2023-03-13T08:39:16;11.40;99.90
28677;DHT22;15858;48.338;11.078;2023-03-13T08:41:43;11.50;99.90
28677;DHT22;15858;48.338;11.078;2023-03-13T08:44:11;11.70;99.90
28677;DHT22;15858;48.338;11.078;2023-03-13T08:46:40;11.80;99.90
28677;DHT22;15858;48.338;11.078;2023-03-13T08:49:08;11.80;99.90
28677;DHT22;15858;48.338;11.078;2023-03-13T08:51:35;11.90;99.90
28677;DHT22;15858;48.338;11.078;2023-03-13T08:54:04;12.00;99.90
28677;DHT22;15858;48.338;11.078;2023-03-13T08:56:31;12.10;99.90
28677;DHT22;15858;48.338;11.078;2023-03-13T08:59:00;12.30;99.90
28677;DHT22;15858;48.338;11.078;2023-03-13T09:01:29;12.50;99.90
28677;DHT22;15858;48.338;11.078;2023-03-13T09:03:56;12.70;99.90
28677;DHT22;15858;48.338;11.078;2023-03-13T09:06:23;12.90;99.90
28677;DHT22;15858;48.338;11.078;2023-03-13T09:08:50;13.10;99.90
28677;DHT22;15858;48.338;11.078;2023-03-13T09:11:19;13.20;99.90
28677;DHT22;15858;48.338;11.078;2023-03-13T09:13:47;13.40;99.90
28677;DHT22;15858;48.338;11.078;2023-03-13T09:16:17;13.50;99.90
28677;DHT22;15858;48.338;11.078;2023-03-13T09:18:44;13.50;99.90
28677;DHT22;15858;48.338;11.078;2023-03-13T09:21:16;13.60;99.90
28677;DHT22;15858;48.338;11.078;2023-03-13T09:23:43;13.70;99.90
28677;DHT22;15858;48.338;11.078;2023-03-13T09:26:13;13.70;99.90
28677;DHT22;15858;48.338;11.078;2023-03-13T09:28:40;13.90;99.90
28677;DHT22;15858;48.338;11.078;2023-03-13T09:31:11;14.10;99.90
28677;DHT22;15858;48.338;11.078;2023-03-13T09:33:39;14.10;99.90
28677;DHT22;15858;48.338;11.078;2023-03-13T09:36:07;14.20;99.90
28677;DHT22;15858;48.338;11.078;2023-03-13T09:38:35;14.00;99.90
28677;DHT22;15858;48.338;11.078;2023-03-13T09:41:56;13.90;99.90
28677;DHT22;15858;48.338;11.078;2023-03-13T09:44:13;14.00;99.90
28677;DHT22;15858;48.338;11.078;2023-03-13T09:47:22;14.00;99.90
28677;DHT22;15858;48.338;11.078;2023-03-13T09:50:02;14.00;99.90
28677;DHT22;15858;48.338;11.078;2023-03-13T09:52:33;14.00;99.90
28677;DHT22;15858;48.338;11.078;2023-03-13T09:57:52;14.00;99.90
28677;DHT22;15858;48.338;11.078;2023-03-13T10:00:30;14.10;99.90
28677;DHT22;15858;48.338;11.078;2023-03-13T10:03:16;14.20;99.90
28677;DHT22;15858;48.338;11.078;2023-03-13T10:05:50;14.30;99.90
28677;DHT22;15858;48.338;11.078;2023-03-13T10:08:21;14.40;99.90
28677;DHT22;15858;48.338;11.078;2023-03-13T10:11:11;14.70;99.90
28677;DHT22;15858;48.338;11.078;2023-03-13T10:13:58;14.70;99.90
28677;DHT22;15858;48.338;11.078;2023-03-13T10:16:37;14.80;99.90
28677;DHT22;15858;48.338;11.078;2023-03-13T10:19:16;14.90;99.90
28677;DHT22;15858;48.338;11.078;2023-03-13T10:21:47;14.90;99.90
28677;DHT22;15858;48.338;11.078;2023-03-13T10:24:32;14.80;99.90
28677;DHT22;15858;48.338;11.078;2023-03-13T10:27:00;14.90;99.90
28677;DHT22;15858;48.338;11.078;2023-03-13T10:29:29;14.90;99.90
28677;DHT22;15858;48.338;11.078;2023-03-13T10:31:59;15.10;99.90
28677;DHT22;15858;48.338;11.078;2023-03-13T10:34:28;15.30;99.90
28677;DHT22;15858;48.338;11.078;2023-03-13T10:36:58;15.50;99.90
28677;DHT22;15858;48.338;11.078;2023-03-13T10:39:27;15.60;99.90
28677;DHT22;15858;48.338;11.078;2023-03-13T10:42:27;15.60;99.90
28677;DHT22;15858;48.338;11.078;2023-03-13T10:44:58;15.80;99.90
28677;DHT22;15858;48.338;11.078;2023-03-13T10:47:26;16.00;99.90
28677;DHT22;15858;48.338;11.078;2023-03-13T10:49:57;16.10;99.90
28677;DHT22;15858;48.338;11.078;2023-03-13T10:52:42;16.30;99.90
28677;DHT22;15858;48.338;11.078;2023-03-13T10:55:12;16.40;99.90
28677;DHT22;15858;48.338;11.078;2023-03-13T10:57:41;16.40;99.90
28677;DHT22;15858;48.338;11.078;2023-03-13T11:00:28;16.50;99.90
28677;DHT22;15858;48.338;11.078;2023-03-13T11:02:55;16.60;99.90
28677;DHT22;15858;48.338;11.078;2023-03-13T11:07:52;17.20;99.90
28677;DHT22;15858;48.338;11.078;2023-03-13T11:12:54;17.30;99.90
28677;DHT22;15858;48.338;11.078;2023-03-13T11:15:38;17.40;99.90
28677;DHT22;15858;48.338;11.078;2023-03-13T11:21:03;17.40;99.90
28677;DHT22;15858;48.338;11.078;2023-03-13T11:23:48;17.50;99.90
28677;DHT22;15858;48.338;11.078;2023-03-13T11:28:57;17.60;99.90
28677;DHT22;15858;48.338;11.078;2023-03-13T11:31:37;17.60;99.90
28677;DHT22;15858;48.338;11.078;2023-03-13T11:34:11;17.70;99.90
28677;DHT22;15858;48.338;11.078;2023-03-13T11:37:13;17.80;99.90
28677;DHT22;15858;48.338;11.078;2023-03-13T11:45:20;18.10;99.90
28677;DHT22;15858;48.338;11.078;2023-03-13T11:48:11;18.30;99.90
28677;DHT22;15858;48.338;11.078;2023-03-13T11:51:12;18.30;99.90
28677;DHT22;15858;48.338;11.078;2023-03-13T11:56:43;18.70;99.90
28677;DHT22;15858;48.338;11.078;2023-03-13T11:59:40;18.60;99.90
28677;DHT22;15858;48.338;11.078;2023-03-13T12:05:09;18.80;99.90
28677;DHT22;15858;48.338;11.078;2023-03-13T12:08:00;18.80;99.90
28677;DHT22;15858;48.338;11.078;2023-03-13T12:10:32;18.90;99.90
28677;DHT22;15858;48.338;11.078;2023-03-13T12:13:16;19.00;99.90
28677;DHT22;15858;48.338;11.078;2023-03-13T12:15:48;19.20;99.90
28677;DHT22;15858;48.338;11.078;2023-03-13T12:18:30;19.20;99.90
28677;DHT22;15858;48.338;11.078;2023-03-13T12:23:52;18.80;99.90
28677;DHT22;15858;48.338;11.078;2023-03-13T12:26:41;18.90;99.90
28677;DHT22;15858;48.338;11.078;2023-03-13T12:31:53;19.10;99.90
28677;DHT22;15858;48.338;11.078;2023-03-13T12:34:29;19.20;99.90
28677;DHT22;15858;48.338;11.078;2023-03-13T12:39:50;19.40;99.90
28677;DHT22;15858;48.338;11.078;2023-03-13T12:42:32;19.50;99.90
28677;DHT22;15858;48.338;11.078;2023-03-13T12:45:03;19.20;99.70
28677;DHT22;15858;48.338;11.078;2023-03-13T12:48:02;19.20;99.90
28677;DHT22;15858;48.338;11.078;2023-03-13T12:51:00;19.30;99.90
28677;DHT22;15858;48.338;11.078;2023-03-13T12:56:25;19.70;99.90
28677;DHT22;15858;48.338;11.078;2023-03-13T12:59:04;19.80;99.60
28677;DHT22;15858;48.338;11.078;2023-03-13T13:01:33;19.90;98.70
28677;DHT22;15858;48.338;11.078;2023-03-13T13:04:10;19.90;98.30
28677;DHT22;15858;48.338;11.078;2023-03-13T13:07:04;20.00;97.40
28677;DHT22;15858;48.338;11.078;2023-03-13T13:09:33;20.10;98.00
28677;DHT22;15858;48.338;11.078;2023-03-13T13:12:18;20.00;97.60
28677;DHT22;15858;48.338;11.078;2023-03-13T13:17:38;20.00;96.90
28677;DHT22;15858;48.338;11.078;2023-03-13T13:20:29;20.10;97.40
28677;DHT22;15858;48.338;11.078;2023-03-13T13:22:56;20.00;96.90
28677;DHT22;15858;48.338;11.078;2023-03-13T13:25:41;19.90;97.50
28677;DHT22;15858;48.338;11.078;2023-03-13T13:28:22;20.00;97.00
28677;DHT22;15858;48.338;11.078;2023-03-13T13:30:51;19.90;97.30
28677;DHT22;15858;48.338;11.078;2023-03-13T13:38:40;20.10;97.70
28677;DHT22;15858;48.338;11.078;2023-03-13T13:43:44;20.00;96.80
28677;DHT22;15858;48.338;11.078;2023-03-13T13:46:28;19.80;97.30
28677;DHT22;15858;48.338;11.078;2023-03-13T13:51:33;19.80;98.10
28677;DHT22;15858;48.338;11.078;2023-03-13T13:54:02;19.60;98.00
28677;DHT22;15858;48.338;11.078;2023-03-13T13:56:37;19.30;98.20
28677;DHT22;15858;48.338;11.078;2023-03-13T14:01:40;19.30;98.20
28677;DHT22;15858;48.338;11.078;2023-03-13T14:04:27;19.50;98.40
28677;DHT22;15858;48.338;11.078;2023-03-13T14:07:00;19.30;98.40
28677;DHT22;15858;48.338;11.078;2023-03-13T14:12:30;19.40;97.90
28677;DHT22;15858;48.338;11.078;2023-03-13T14:17:53;19.50;98.40
28677;DHT22;15858;48.338;11.078;2023-03-13T14:20:33;19.70;98.50
28677;DHT22;15858;48.338;11.078;2023-03-13T14:23:05;19.70;97.80
28677;DHT22;15858;48.338;11.078;2023-03-13T14:25:49;19.70;98.00
28677;DHT22;15858;48.338;11.078;2023-03-13T14:28:17;19.70;98.30
28677;DHT22;15858;48.338;11.078;2023-03-13T14:30:44;19.70;98.50
28677;DHT22;15858;48.338;11.078;2023-03-13T14:33:11;19.70;98.30
28677;DHT22;15858;48.338;11.078;2023-03-13T14:35:40;19.60;98.50
28677;DHT22;15858;48.338;11.078;2023-03-13T14:38:14;19.60;98.40
28677;DHT22;15858;48.338;11.078;2023-03-13T14:40:41;19.70;97.90
28677;DHT22;15858;48.338;11.078;2023-03-13T14:45:44;19.70;97.70
28677;DHT22;15858;48.338;11.078;2023-03-13T14:48:19;19.60;97.30
28677;DHT22;15858;48.338;11.078;2023-03-13T14:50:47;19.70;98.10
28677;DHT22;15858;48.338;11.078;2023-03-13T14:53:19;19.60;97.90
28677;DHT22;15858;48.338;11.078;2023-03-13T14:55:47;19.50;97.70
28677;DHT22;15858;48.338;11.078;2023-03-13T15:00:47;19.40;97.90
28677;DHT22;15858;48.338;11.078;2023-03-13T15:05:42;19.10;98.20
28677;DHT22;15858;48.338;11.078;2023-03-13T15:08:20;19.00;98.30
28677;DHT22;15858;48.338;11.078;2023-03-13T15:10:48;19.00;99.00
28677;DHT22;15858;48.338;11.078;2023-03-13T15:13:35;19.10;99.00
28677;DHT22;15858;48.338;11.078;2023-03-13T15:16:11;19.20;99.30
28677;DHT22;15858;48.338;11.078;2023-03-13T15:18:39;19.20;99.00
28677;DHT22;15858;48.338;11.078;2023-03-13T15:23:44;19.30;99.80
28677;DHT22;15858;48.338;11.078;2023-03-13T15:26:12;19.40;99.00
28677;DHT22;15858;48.338;11.078;2023-03-13T15:28:38;19.50;99.20
28677;DHT22;15858;48.338;11.078;2023-03-13T15:31:05;19.30;98.10
28677;DHT22;15858;48.338;11.078;2023-03-13T15:33:33;19.20;98.30
28677;DHT22;15858;48.338;11.078;2023-03-13T15:36:00;19.20;98.20
28677;DHT22;15858;48.338;11.078;2023-03-13T15:38:27;19.20;98.10
28677;DHT22;15858;48.338;11.078;2023-03-13T15:40:53;19.20;98.50
28677;DHT22;15858;48.338;11.078;2023-03-13T15:43:21;19.20;98.60
28677;DHT22;15858;48.338;11.078;2023-03-13T15:45:49;19.10;98.40
28677;DHT22;15858;48.338;11.078;2023-03-13T15:48:23;19.00;98.60
28677;DHT22;15858;48.338;11.078;2023-03-13T15:50:51;19.00;98.90
28677;DHT22;15858;48.338;11.078;2023-03-13T15:53:27;19.00;98.90
28677;DHT22;15858;48.338;11.078;2023-03-13T15:55:55;19.00;99.20
28677;DHT22;15858;48.338;11.078;2023-03-13T15:58:22;19.00;99.80
28677;DHT22;15858;48.338;11.078;2023-03-13T16:00:49;19.10;99.80
28677;DHT22;15858;48.338;11.078;2023-03-13T16:03:24;19.00;99.90
28677;DHT22;15858;48.338;11.078;2023-03-13T16:05:52;19.10;99.70
28677;DHT22;15858;48.338;11.078;2023-03-13T16:08:27;19.00;99.90
28677;DHT22;15858;48.338;11.078;2023-03-13T16:11:03;19.00;99.90
28677;DHT22;15858;48.338;11.078;2023-03-13T16:13:30;18.90;99.90
28677;DHT22;15858;48.338;11.078;2023-03-13T16:15:56;18.90;99.90
28677;DHT22;15858;48.338;11.078;2023-03-13T16:18:24;18.80;99.90
28677;DHT22;15858;48.338;11.078;2023-03-13T16:20:51;18.70;99.90
28677;DHT22;15858;48.338;11.078;2023-03-13T16:23:18;18.80;99.90
28677;DHT22;15858;48.338;11.078;2023-03-13T16:25:45;18.70;99.90
28677;DHT22;15858;48.338;11.078;2023-03-13T16:28:13;18.50;99.90
28677;DHT22;15858;48.338;11.078;2023-03-13T16:30:40;18.50;99.90
28677;DHT22;15858;48.338;11.078;2023-03-13T16:33:07;18.40;99.90
28677;DHT22;15858;48.338;11.078;2023-03-13T16:35:34;18.30;99.90
28677;DHT22;15858;48.338;11.078;2023-03-13T16:38:01;18.30;99.90
28677;DHT22;15858;48.338;11.078;2023-03-13T16:40:30;18.20;99.90
28677;DHT22;15858;48.338;11.078;2023-03-13T16:42:57;18.10;99.90
28677;DHT22;15858;48.338;11.078;2023-03-13T16:45:24;17.90;99.90
28677;DHT22;15858;48.338;11.078;2023-03-13T16:47:51;17.80;99.90
28677;DHT22;15858;48.338;11.078;2023-03-13T16:50:35;17.70;99.90
28677;DHT22;15858;48.338;11.078;2023-03-13T16:53:03;17.50;99.90
28677;DHT22;15858;48.338;11.078;2023-03-13T16:55:29;17.40;99.90